Time;durP1;ratioP1;P1;durP2;ratioP2;P2;SDS_P1;SDS_P2;PMS_P1;PMS_P2;Temp;Humidity;BMP_temperature;BMP_pressure;BME280_temperature;BME280_humidity;BME280_pressure;Samples;Min_cycle;Max_cycle;Signal;HPM_P1;HPM_P2
2021/01/09 00:01:02;;;;;;;36.28;17.38;;;4.10;99.90;;;;;;5008827;28;20423;-54
2021/01/09 00:03:27;;;;;;;35.85;17.45;;;2.30;99.90;;;;;;5010989;28;20890;-54
2021/01/09 00:05:53;;;;;;;28.57;16.57;;;3.50;99.90;;;;;;5009818;28;20409;-55
2021/01/09 00:08:20;;;;;;;28.10;15.90;;;4.10;99.90;;;;;;5009151;28;20420;-54
2021/01/09 00:10:47;;;;;;;30.67;14.40;;;5.00;99.90;;;;;;5010015;28;20395;-54
2021/01/09 00:13:13;;;;;;;32.42;17.20;;;4.90;99.90;;;;;;5009060;28;20401;-55
2021/01/09 00:15:39;;;;;;;28.90;15.50;;;4.80;99.90;;;;;;5010285;28;20743;-54
2021/01/09 00:18:04;;;;;;;29.40;14.75;;;2.20;99.90;;;;;;5009114;28;20401;-54
2021/01/09 00:20:30;;;;;;;28.27;14.30;;;2.20;99.90;;;;;;5010575;28;20452;-54
2021/01/09 00:22:56;;;;;;;27.73;14.43;;;2.10;99.90;;;;;;5009642;28;20533;-54
2021/01/09 00:25:21;;;;;;;26.30;14.30;;;3.10;99.90;;;;;;5009105;28;21179;-55
2021/01/09 00:27:47;;;;;;;25.50;13.50;;;2.20;99.90;;;;;;5009603;28;20393;-56
2021/01/09 00:30:13;;;;;;;26.88;14.52;;;2.10;99.90;;;;;;5008902;28;20782;-55
2021/01/09 00:32:39;;;;;;;26.08;13.88;;;2.20;99.90;;;;;;5003346;28;20739;-54
2021/01/09 00:35:06;;;;;;;26.70;14.50;;;2.30;99.90;;;;;;5008781;28;20484;-54
2021/01/09 00:37:32;;;;;;;27.27;14.45;;;2.40;99.90;;;;;;5007384;28;20717;-52
2021/01/09 00:39:57;;;;;;;27.05;14.88;;;2.70;99.90;;;;;;5009225;28;20393;-52
2021/01/09 00:42:23;;;;;;;27.97;15.33;;;4.60;99.90;;;;;;5008553;28;20750;-52
2021/01/09 00:44:49;;;;;;;25.43;14.70;;;2.40;99.90;;;;;;5009311;28;20400;-52
2021/01/09 00:47:14;;;;;;;25.42;14.68;;;2.30;99.90;;;;;;5008493;28;20403;-52
2021/01/09 00:49:40;;;;;;;31.50;15.85;;;3.20;99.90;;;;;;5009481;28;20377;-52
2021/01/09 00:52:06;;;;;;;31.93;16.80;;;5.00;99.90;;;;;;5008819;28;20487;-54
2021/01/09 00:54:32;;;;;;;30.00;16.17;;;2.60;99.90;;;;;;5010111;28;20553;-54
2021/01/09 00:56:58;;;;;;;29.33;16.02;;;2.50;99.90;;;;;;5009343;28;20582;-52
2021/01/09 00:59:24;;;;;;;27.97;15.93;;;2.10;99.90;;;;;;5008431;28;20897;-52
2021/01/09 01:01:50;;;;;;;27.27;15.57;;;4.10;99.90;;;;;;5008418;28;20425;-52
2021/01/09 01:04:16;;;;;;;28.77;14.35;;;2.20;99.90;;;;;;5008034;28;20503;-53
2021/01/09 01:06:42;;;;;;;27.05;15.18;;;2.20;99.90;;;;;;5009008;28;20845;-53
2021/01/09 01:09:07;;;;;;;29.87;15.33;;;2.20;99.90;;;;;;5009344;28;20451;-52
2021/01/09 01:11:33;;;;;;;28.02;15.30;;;3.50;99.90;;;;;;5008906;28;20413;-52
2021/01/09 01:13:59;;;;;;;26.30;14.73;;;2.30;99.90;;;;;;5007150;28;20499;-53
2021/01/09 01:16:25;;;;;;;28.52;14.73;;;4.00;99.90;;;;;;5009685;28;20385;-53
2021/01/09 01:18:51;;;;;;;27.33;15.60;;;2.20;99.90;;;;;;5008512;28;20400;-52
2021/01/09 01:21:17;;;;;;;29.00;15.90;;;3.90;99.90;;;;;;5008367;28;20424;-53
2021/01/09 01:23:43;;;;;;;24.83;14.48;;;2.90;99.90;;;;;;5008826;28;20393;-53
2021/01/09 01:26:12;;;;;;;27.40;15.40;;;4.40;99.90;;;;;;5008193;28;20393;-53
2021/01/09 01:28:38;;;;;;;27.45;14.65;;;2.40;99.90;;;;;;5008489;28;20401;-53
2021/01/09 01:31:04;;;;;;;29.45;16.20;;;3.30;99.90;;;;;;5008615;28;20765;-53
2021/01/09 01:33:30;;;;;;;30.38;16.45;;;5.10;99.90;;;;;;5009485;28;20425;-53
2021/01/09 01:35:57;;;;;;;27.27;15.20;;;3.90;99.90;;;;;;5007325;28;20400;-53
2021/01/09 01:38:22;;;;;;;31.20;15.27;;;2.50;99.90;;;;;;5009618;28;20412;-53
2021/01/09 01:40:48;;;;;;;30.00;15.30;;;2.50;99.90;;;;;;5008758;28;20416;-54
2021/01/09 01:43:14;;;;;;;31.13;17.10;;;2.50;99.90;;;;;;5007725;28;20906;-53
2021/01/09 01:45:41;;;;;;;28.08;15.68;;;3.80;99.90;;;;;;5008639;28;20412;-53
2021/01/09 01:48:08;;;;;;;29.88;17.00;;;4.90;99.90;;;;;;5007946;28;20945;-54
2021/01/09 01:50:34;;;;;;;29.33;16.73;;;2.60;99.90;;;;;;5007080;28;20703;-53
2021/01/09 01:53:00;;;;;;;28.93;16.13;;;5.00;99.90;;;;;;5007155;28;20432;-53
2021/01/09 01:55:26;;;;;;;25.47;14.97;;;2.60;99.90;;;;;;5009282;28;20463;-53
2021/01/09 01:57:52;;;;;;;32.85;16.98;;;5.10;99.90;;;;;;5004162;28;20427;-53
2021/01/09 02:00:24;;;;;;;30.53;15.60;;;3.90;99.90;;;;;;5009368;28;20847;-53
2021/01/09 02:02:50;;;;;;;29.55;16.63;;;2.70;99.90;;;;;;5007774;28;20415;-53
2021/01/09 02:05:16;;;;;;;30.75;16.85;;;2.60;99.90;;;;;;5009021;28;20463;-53
2021/01/09 02:07:43;;;;;;;30.40;17.17;;;2.40;99.90;;;;;;5009268;28;20385;-53
2021/01/09 02:10:09;;;;;;;31.25;16.60;;;4.40;99.90;;;;;;5008361;28;20404;-53
2021/01/09 02:12:54;;;;;;;31.00;16.65;;;2.40;99.90;;;;;;5010219;28;20388;-53
2021/01/09 02:15:20;;;;;;;27.80;15.70;;;4.90;99.90;;;;;;5011899;28;21394;-53
2021/01/09 02:17:46;;;;;;;31.45;17.42;;;2.40;99.90;;;;;;5012245;28;20795;-53
2021/01/09 02:20:12;;;;;;;29.25;16.55;;;2.50;99.90;;;;;;5011432;28;20408;-53
2021/01/09 02:22:43;;;;;;;32.70;16.45;;;3.30;99.90;;;;;;5012961;28;20442;-53
2021/01/09 02:25:11;;;;;;;30.42;16.40;;;2.50;99.90;;;;;;5012475;28;20391;-53
2021/01/09 02:27:37;;;;;;;30.30;16.23;;;2.40;99.90;;;;;;5012071;28;20440;-53
2021/01/09 02:30:10;;;;;;;32.63;17.20;;;2.40;99.90;;;;;;5011074;28;20393;-53
2021/01/09 02:32:57;;;;;;;29.40;16.70;;;2.50;99.90;;;;;;5013080;28;20393;-53
2021/01/09 02:35:26;;;;;;;33.08;16.88;;;2.50;99.90;;;;;;5012044;28;20529;-53
2021/01/09 02:37:53;;;;;;;34.30;17.23;;;2.40;99.90;;;;;;5011181;28;20802;-53
2021/01/09 02:40:19;;;;;;;33.05;18.83;;;2.40;99.90;;;;;;5010116;28;20830;-53
2021/01/09 02:42:45;;;;;;;28.83;16.10;;;2.40;99.90;;;;;;5012011;28;20381;-53
2021/01/09 02:45:11;;;;;;;34.92;18.88;;;3.90;99.90;;;;;;5011486;28;20866;-53
2021/01/09 02:47:39;;;;;;;34.28;17.95;;;2.30;99.90;;;;;;5012727;28;20421;-53
2021/01/09 02:50:07;;;;;;;31.42;16.77;;;2.30;99.90;;;;;;5010711;28;20566;-53
2021/01/09 02:52:32;;;;;;;31.40;17.70;;;2.30;99.90;;;;;;5012128;28;20833;-53
2021/01/09 02:54:58;;;;;;;33.87;16.77;;;2.30;99.90;;;;;;5011587;28;20452;-53
2021/01/09 02:57:24;;;;;;;33.30;17.60;;;2.30;99.90;;;;;;5010835;28;20452;-53
2021/01/09 02:59:50;;;;;;;32.90;17.83;;;3.20;99.90;;;;;;5011825;28;20385;-53
2021/01/09 03:02:15;;;;;;;32.10;17.85;;;2.20;99.90;;;;;;5011142;28;20413;-53
2021/01/09 03:04:41;;;;;;;35.17;17.80;;;2.20;99.90;;;;;;5010908;28;20415;-53
2021/01/09 03:07:06;;;;;;;31.80;17.43;;;2.20;99.90;;;;;;5012131;28;20413;-53
2021/01/09 03:09:32;;;;;;;35.33;18.00;;;3.30;99.90;;;;;;5012279;28;20735;-54
2021/01/09 03:11:58;;;;;;;33.40;17.80;;;3.70;99.90;;;;;;5009841;28;20397;-54
2021/01/09 03:14:24;;;;;;;31.55;17.00;;;2.30;99.90;;;;;;5012201;28;20486;-54
2021/01/09 03:16:49;;;;;;;34.37;17.33;;;2.40;99.90;;;;;;5009528;28;20757;-53
2021/01/09 03:19:15;;;;;;;36.47;18.50;;;5.00;99.90;;;;;;5011131;28;20388;-53
2021/01/09 03:21:41;;;;;;;36.53;19.23;;;2.20;99.90;;;;;;5011473;28;20917;-53
2021/01/09 03:24:06;;;;;;;31.80;17.70;;;2.40;99.90;;;;;;5009572;28;20412;-53
2021/01/09 03:26:33;;;;;;;31.80;17.70;;;2.20;99.90;;;;;;5011689;28;20400;-54
2021/01/09 03:28:58;;;;;;;35.47;18.38;;;3.20;99.90;;;;;;5011427;28;20392;-54
2021/01/09 03:31:26;;;;;;;38.80;19.80;;;3.30;99.90;;;;;;5010303;28;20755;-53
2021/01/09 03:33:51;;;;;;;32.80;17.05;;;2.20;99.90;;;;;;5010967;28;20443;-53
2021/01/09 03:36:17;;;;;;;33.23;18.07;;;3.10;99.90;;;;;;5011614;28;20400;-53
2021/01/09 03:38:43;;;;;;;38.83;18.47;;;4.00;99.90;;;;;;5010545;28;20397;-54
2021/01/09 03:41:09;;;;;;;32.85;17.48;;;3.10;99.90;;;;;;5010446;28;20384;-53
2021/01/09 03:43:34;;;;;;;38.38;19.20;;;2.10;99.90;;;;;;5010223;28;20408;-54
2021/01/09 03:46:00;;;;;;;32.37;18.53;;;2.10;99.90;;;;;;5010912;28;20472;-53
2021/01/09 03:48:25;;;;;;;34.90;18.27;;;1.90;99.90;;;;;;5011237;28;20388;-53
2021/01/09 03:50:51;;;;;;;39.38;18.77;;;1.90;99.90;;;;;;5009725;28;20862;-53
2021/01/09 03:53:17;;;;;;;34.65;18.17;;;2.00;99.90;;;;;;5011779;28;20854;-53
2021/01/09 03:55:43;;;;;;;34.17;19.50;;;2.00;99.90;;;;;;5009634;28;20862;-53
2021/01/09 03:58:08;;;;;;;33.47;18.50;;;3.70;99.90;;;;;;5011343;28;20416;-53
2021/01/09 04:00:34;;;;;;;37.30;18.90;;;3.90;99.90;;;;;;5009927;28;20416;-54
2021/01/09 04:02:59;;;;;;;37.27;18.73;;;4.00;99.90;;;;;;5010441;28;20385;-54
2021/01/09 04:05:25;;;;;;;32.00;18.20;;;4.40;99.90;;;;;;5011310;28;20408;-53
2021/01/09 04:07:51;;;;;;;31.48;17.02;;;3.40;99.90;;;;;;5009190;28;20862;-53
2021/01/09 04:10:17;;;;;;;34.45;19.08;;;4.50;99.90;;;;;;5011459;28;20385;-53
2021/01/09 04:12:43;;;;;;;34.47;19.03;;;4.80;99.90;;;;;;5009487;28;20397;-53
2021/01/09 04:15:11;;;;;;;33.90;19.45;;;3.10;99.90;;;;;;5010872;28;20425;-53
2021/01/09 04:17:36;;;;;;;35.30;19.52;;;2.00;99.90;;;;;;5009738;28;20412;-53
2021/01/09 04:20:03;;;;;;;36.67;18.77;;;3.20;99.90;;;;;;5009157;28;20451;-53
2021/01/09 04:22:28;;;;;;;37.70;18.38;;;2.00;99.90;;;;;;5010492;28;20405;-53
2021/01/09 04:24:54;;;;;;;35.27;19.23;;;3.20;99.90;;;;;;5009043;28;20487;-53
2021/01/09 04:27:19;;;;;;;37.90;19.43;;;4.90;99.90;;;;;;5009393;28;20763;-53
2021/01/09 04:29:45;;;;;;;37.45;18.60;;;2.00;99.90;;;;;;5008801;28;20401;-52
2021/01/09 04:32:11;;;;;;;34.00;18.37;;;4.40;99.90;;;;;;5010191;28;20440;-53
2021/01/09 04:34:36;;;;;;;32.33;18.40;;;2.10;99.90;;;;;;5009485;28;20890;-54
2021/01/09 04:37:02;;;;;;;34.45;19.17;;;2.10;99.90;;;;;;5009440;28;20391;-53
2021/01/09 04:39:27;;;;;;;32.13;18.00;;;2.20;99.90;;;;;;5009301;28;20863;-53
2021/01/09 04:41:53;;;;;;;37.13;17.35;;;2.70;99.90;;;;;;5009246;28;20834;-53
2021/01/09 04:44:19;;;;;;;37.33;19.70;;;2.20;99.90;;;;;;5008590;28;20400;-53
2021/01/09 04:46:54;;;;;;;34.15;19.33;;;2.20;99.90;;;;;;5010244;28;20782;-53
2021/01/09 04:49:23;;;;;;;33.90;17.95;;;2.10;99.90;;;;;;5009102;28;20777;-52
2021/01/09 04:51:49;;;;;;;36.35;19.48;;;3.80;99.90;;;;;;5009574;28;20916;-53
2021/01/09 04:54:19;;;;;;;34.58;18.33;;;2.10;99.90;;;;;;5010352;28;20419;-53
2021/01/09 04:56:48;;;;;;;36.50;18.92;;;2.60;99.90;;;;;;5008214;28;20758;-53
2021/01/09 04:59:15;;;;;;;38.67;18.83;;;2.10;99.90;;;;;;5010454;28;20480;-53
2021/01/09 05:01:41;;;;;;;38.95;19.85;;;2.10;99.90;;;;;;5010657;28;20396;-53
2021/01/09 05:04:08;;;;;;;38.10;20.10;;;2.00;99.90;;;;;;5008181;28;20428;-53
2021/01/09 05:06:34;;;;;;;39.78;20.48;;;4.90;99.90;;;;;;5010340;28;20435;-53
2021/01/09 05:08:59;;;;;;;39.33;20.27;;;3.90;99.90;;;;;;5009236;28;20385;-53
2021/01/09 05:11:25;;;;;;;39.38;20.50;;;2.00;99.90;;;;;;5008738;28;20408;-53
2021/01/09 05:13:51;;;;;;;41.30;21.00;;;2.10;99.90;;;;;;5008811;28;20428;-53
2021/01/09 05:16:17;;;;;;;36.92;19.20;;;4.20;99.90;;;;;;5008822;28;20436;-53
2021/01/09 05:18:43;;;;;;;37.43;19.10;;;2.10;99.90;;;;;;5007825;28;20826;-53
2021/01/09 05:21:12;;;;;;;38.40;18.55;;;3.40;99.90;;;;;;5008389;28;20401;-53
2021/01/09 05:23:50;;;;;;;40.35;20.52;;;2.10;99.90;;;;;;5009895;28;20495;-53
2021/01/09 05:26:20;;;;;;;37.42;20.40;;;2.10;99.90;;;;;;5008303;28;20428;-53
2021/01/09 05:28:50;;;;;;;39.03;20.23;;;2.00;99.90;;;;;;5008372;28;20408;-53
2021/01/09 05:31:17;;;;;;;37.67;20.70;;;2.70;99.90;;;;;;5008421;28;20407;-53
2021/01/09 05:33:43;;;;;;;44.42;20.05;;;3.50;99.90;;;;;;5008384;28;20416;-53
2021/01/09 05:36:12;;;;;;;36.67;19.58;;;2.20;99.90;;;;;;5009651;28;20467;-53
2021/01/09 05:38:39;;;;;;;37.80;19.15;;;3.10;99.90;;;;;;5008692;28;20397;-53
2021/01/09 05:41:07;;;;;;;41.90;20.95;;;4.50;99.90;;;;;;5009265;28;20377;-53
2021/01/09 05:43:33;;;;;;;41.45;21.80;;;1.90;99.90;;;;;;5008466;28;20396;-53
2021/01/09 05:46:00;;;;;;;43.45;21.00;;;3.00;99.90;;;;;;5008552;28;20441;-53
2021/01/09 05:48:27;;;;;;;44.42;21.83;;;1.90;99.90;;;;;;5010873;28;20401;-53
2021/01/09 05:50:54;;;;;;;40.05;20.83;;;1.90;99.90;;;;;;5011810;28;20424;-53
2021/01/09 05:53:40;;;;;;;45.17;22.55;;;1.90;99.90;;;;;;5013505;28;20381;-54
2021/01/09 05:56:06;;;;;;;38.67;20.35;;;1.90;99.90;;;;;;5011629;28;20400;-53
2021/01/09 05:58:34;;;;;;;37.90;19.38;;;3.50;99.90;;;;;;5013013;28;20934;-53
2021/01/09 06:01:13;;;;;;;42.37;21.10;;;2.00;99.90;;;;;;5011735;28;20793;-53
2021/01/09 06:03:39;;;;;;;36.95;19.27;;;2.10;99.90;;;;;;5013989;28;20400;-53
2021/01/09 06:06:21;;;;;;;40.78;19.75;;;2.10;99.90;;;;;;5011126;28;20439;-53
2021/01/09 06:08:53;;;;;;;38.67;20.00;;;2.20;99.90;;;;;;5011443;28;20404;-53
2021/01/09 06:11:28;;;;;;;33.90;18.17;;;4.50;99.90;;;;;;5013065;28;20809;-53
2021/01/09 06:13:58;;;;;;;41.42;19.30;;;3.00;99.90;;;;;;5011275;28;20473;-53
2021/01/09 06:16:25;;;;;;;40.05;19.50;;;4.90;99.90;;;;;;5011954;28;20877;-53
2021/01/09 06:18:51;;;;;;;37.95;19.65;;;2.30;99.90;;;;;;5010386;28;20416;-53
2021/01/09 06:21:18;;;;;;;36.30;18.00;;;3.00;99.90;;;;;;5013248;28;20460;-53
2021/01/09 06:23:45;;;;;;;37.72;19.80;;;3.80;99.90;;;;;;5011476;28;20888;-53
2021/01/09 06:26:14;;;;;;;34.55;17.65;;;2.40;99.90;;;;;;5013005;28;20491;-53
2021/01/09 06:28:45;;;;;;;37.38;18.65;;;2.40;99.90;;;;;;5011940;28;20408;-53
2021/01/09 06:31:18;;;;;;;35.28;19.27;;;3.00;99.90;;;;;;5008851;28;20397;-53
2021/01/09 06:33:50;;;;;;;40.75;19.98;;;2.40;99.90;;;;;;5010924;28;20428;-53
2021/01/09 06:36:20;;;;;;;36.00;18.53;;;2.30;99.90;;;;;;5013129;28;20389;-53
2021/01/09 06:38:57;;;;;;;34.90;18.63;;;2.30;99.90;;;;;;5010802;28;20401;-53
2021/01/09 06:41:24;;;;;;;36.78;18.85;;;2.20;99.90;;;;;;5012607;28;20726;-53
2021/01/09 06:43:52;;;;;;;36.77;18.80;;;3.00;99.90;;;;;;5010849;28;20412;-53
2021/01/09 06:46:30;;;;;;;37.55;18.52;;;2.60;99.90;;;;;;5012503;28;20381;-54
2021/01/09 06:48:56;;;;;;;33.40;18.30;;;4.50;99.90;;;;;;5010097;28;20948;-53
2021/01/09 06:51:40;;;;;;;36.38;18.20;;;2.40;99.90;;;;;;5011309;28;20428;-53
2021/01/09 06:54:14;;;;;;;38.10;18.83;;;2.40;99.90;;;;;;5008850;28;20412;-53
2021/01/09 06:56:43;;;;;;;38.07;19.30;;;2.40;99.90;;;;;;5004224;28;20424;-53
2021/01/09 06:59:09;;;;;;;38.92;18.50;;;4.30;99.90;;;;;;5011188;28;20867;-54
2021/01/09 07:01:38;;;;;;;36.72;19.42;;;2.50;99.90;;;;;;5011779;28;20393;-53
2021/01/09 07:04:05;;;;;;;37.72;19.42;;;4.30;99.90;;;;;;5010085;28;20413;-53
2021/01/09 07:06:59;;;;;;;39.97;19.60;;;2.40;99.90;;;;;;5011817;28;20957;-53
2021/01/09 07:09:27;;;;;;;36.40;18.80;;;2.40;99.90;;;;;;5012165;28;20389;-53
2021/01/09 07:11:54;;;;;;;39.33;20.30;;;2.40;99.90;;;;;;5009597;28;20407;-53
2021/01/09 07:14:21;;;;;;;38.50;19.42;;;2.50;99.90;;;;;;5011111;28;20428;-53
2021/01/09 07:16:47;;;;;;;35.83;18.92;;;2.50;99.90;;;;;;5010039;28;20404;-53
2021/01/09 07:19:14;;;;;;;41.40;20.05;;;3.20;99.90;;;;;;5010647;28;20965;-53
2021/01/09 07:21:45;;;;;;;36.30;18.88;;;3.60;99.90;;;;;;5011397;28;20381;-53
2021/01/09 07:24:16;;;;;;;35.00;19.52;;;2.50;99.90;;;;;;5010779;28;20469;-53
2021/01/09 07:26:42;;;;;;;37.92;20.38;;;2.50;99.90;;;;;;5011528;28;20381;-53
2021/01/09 07:29:08;;;;;;;38.05;20.13;;;4.20;99.90;;;;;;5008707;28;20400;-53
2021/01/09 07:31:39;;;;;;;41.95;20.88;;;5.40;99.90;;;;;;5011634;28;20454;-53
2021/01/09 07:34:11;;;;;;;37.77;20.57;;;2.60;99.90;;;;;;5009425;28;20606;-53
2021/01/09 07:36:39;;;;;;;50.00;22.90;;;4.60;99.90;;;;;;5011879;28;20385;-53
2021/01/09 07:39:05;;;;;;;42.20;22.13;;;3.70;99.90;;;;;;5009084;28;20412;-53
2021/01/09 07:41:35;;;;;;;41.95;21.45;;;2.60;99.90;;;;;;5011579;28;20751;-54
2021/01/09 07:44:18;;;;;;;37.47;20.20;;;2.70;99.90;;;;;;5010701;28;20392;-53
2021/01/09 07:46:50;;;;;;;41.20;20.70;;;4.80;99.90;;;;;;5009896;28;20393;-53
2021/01/09 07:49:30;;;;;;;41.10;20.70;;;5.00;99.90;;;;;;5011215;28;20401;-53
2021/01/09 07:51:59;;;;;;;37.90;20.08;;;2.60;99.90;;;;;;5009294;28;20400;-53
2021/01/09 07:54:38;;;;;;;39.75;21.52;;;2.50;99.90;;;;;;5009670;28;20417;-53
2021/01/09 07:57:17;;;;;;;44.20;22.30;;;2.60;99.90;;;;;;5006975;28;20397;-53
2021/01/09 08:00:00;;;;;;;42.73;21.90;;;2.60;99.90;;;;;;5009805;28;20491;-53
2021/01/09 08:02:31;;;;;;;44.67;22.15;;;2.70;99.90;;;;;;5009857;28;20527;-53
2021/01/09 08:05:10;;;;;;;37.60;20.15;;;4.30;99.90;;;;;;5009735;28;20392;-53
2021/01/09 08:07:44;;;;;;;38.88;21.75;;;2.50;99.90;;;;;;5006590;28;20407;-54
2021/01/09 08:10:34;;;;;;;42.33;22.10;;;2.50;99.90;;;;;;5006285;28;20803;-53
2021/01/09 08:13:05;;;;;;;46.33;24.52;;;2.50;99.90;;;;;;5004176;28;20878;-53
2021/01/09 08:15:33;;;;;;;46.67;23.77;;;2.40;99.90;;;;;;5010300;28;20956;-53
2021/01/09 08:18:00;;;;;;;44.80;23.25;;;2.50;99.90;;;;;;5009672;28;20472;-53
2021/01/09 08:20:26;;;;;;;42.40;22.63;;;2.40;99.90;;;;;;5007684;28;20405;-53
2021/01/09 08:23:00;;;;;;;46.63;23.23;;;2.40;99.90;;;;;;5005789;28;20404;-53
2021/01/09 08:25:27;;;;;;;41.00;21.10;;;2.40;99.90;;;;;;5006259;28;20783;-53
2021/01/09 08:27:55;;;;;;;39.63;20.98;;;2.40;99.90;;;;;;5006543;28;20855;-53
2021/01/09 08:30:29;;;;;;;41.03;20.93;;;2.40;99.90;;;;;;5008609;28;20814;-53
2021/01/09 08:33:02;;;;;;;43.63;20.88;;;4.10;99.90;;;;;;5004875;28;20397;-53
2021/01/09 08:35:27;;;;;;;43.25;21.95;;;3.80;99.90;;;;;;5008395;28;20408;-53
2021/01/09 08:37:53;;;;;;;69.13;31.15;;;2.40;99.90;;;;;;5004336;28;20458;-53
2021/01/09 08:40:20;;;;;;;38.65;20.58;;;3.80;99.90;;;;;;5006031;28;20496;-53
2021/01/09 08:43:12;;;;;;;38.70;19.50;;;2.30;99.90;;;;;;5003086;28;20443;-53
2021/01/09 08:45:47;;;;;;;39.22;20.45;;;4.80;99.90;;;;;;5008252;28;20503;-54
2021/01/09 08:48:14;;;;;;;37.80;20.48;;;2.20;99.90;;;;;;5009601;28;20388;-53
2021/01/09 08:50:57;;;;;;;56.83;26.77;;;3.10;99.90;;;;;;5009574;28;20400;-53
2021/01/09 08:53:24;;;;;;;38.50;19.73;;;2.40;99.90;;;;;;5009690;28;20399;-53
2021/01/09 08:55:55;;;;;;;37.95;19.25;;;4.60;99.90;;;;;;5009519;28;20862;-52
2021/01/09 08:58:21;;;;;;;38.88;18.60;;;2.50;99.90;;;;;;5006529;28;20404;-53
2021/01/09 09:00:47;;;;;;;38.20;19.70;;;2.50;99.90;;;;;;5009183;28;20480;-53
2021/01/09 09:03:16;;;;;;;34.75;17.70;;;4.20;99.90;;;;;;5006367;28;20755;-53
2021/01/09 09:05:43;;;;;;;37.42;18.88;;;2.60;99.90;;;;;;5009306;28;20429;-54
2021/01/09 09:08:12;;;;;;;51.08;25.05;;;2.50;99.90;;;;;;5006422;28;21268;-53
2021/01/09 09:10:39;;;;;;;53.05;26.83;;;5.20;99.90;;;;;;5004406;28;20413;-53
2021/01/09 09:13:16;;;;;;;41.35;21.08;;;2.90;99.90;;;;;;5007078;28;20396;-54
2021/01/09 09:15:41;;;;;;;39.67;20.63;;;2.30;99.90;;;;;;5008618;28;20409;-53
2021/01/09 09:18:09;;;;;;;43.90;21.90;;;2.30;99.90;;;;;;5007462;28;20427;-53
2021/01/09 09:20:35;;;;;;;35.92;17.35;;;2.30;99.90;;;;;;4989804;28;20426;-54
2021/01/09 09:23:22;;;;;;;33.40;16.48;;;3.20;99.90;;;;;;5006743;28;20401;-53
2021/01/09 09:26:07;;;;;;;36.47;17.08;;;4.20;99.90;;;;;;5001433;28;20392;-53
2021/01/09 09:28:51;;;;;;;41.53;18.08;;;4.40;99.90;;;;;;5008111;28;20408;-53
2021/01/09 09:31:40;;;;;;;34.10;16.88;;;2.20;99.90;;;;;;5008965;28;20480;-53
2021/01/09 09:34:11;;;;;;;40.83;20.23;;;2.40;99.90;;;;;;5006157;28;20448;-53
2021/01/09 09:36:41;;;;;;;37.08;17.70;;;2.40;99.90;;;;;;5007903;28;20397;-53
2021/01/09 09:39:33;;;;;;;43.97;19.88;;;2.50;99.90;;;;;;5006548;28;20420;-53
2021/01/09 09:42:01;;;;;;;48.83;23.30;;;2.60;99.90;;;;;;5004864;28;20405;-54
2021/01/09 09:44:35;;;;;;;56.05;26.25;;;2.60;99.90;;;;;;5006301;28;20429;-53
2021/01/09 09:47:01;;;;;;;48.95;22.27;;;2.60;99.90;;;;;;5006764;28;20498;-53
2021/01/09 09:49:27;;;;;;;48.72;21.83;;;3.80;99.90;;;;;;5007508;28;20405;-54
2021/01/09 09:51:53;;;;;;;34.17;16.73;;;3.60;99.90;;;;;;5008081;28;20404;-53
2021/01/09 09:54:30;;;;;;;32.70;16.20;;;2.70;99.90;;;;;;5007791;28;20465;-54
2021/01/09 09:56:56;;;;;;;35.50;17.33;;;3.80;99.90;;;;;;5006424;28;20397;-53
2021/01/09 09:59:27;;;;;;;74.40;31.43;;;5.40;99.90;;;;;;5008678;28;20373;-53
2021/01/09 10:01:58;;;;;;;55.60;26.15;;;5.20;99.90;;;;;;5006279;28;20435;-53
2021/01/09 10:04:24;;;;;;;40.80;19.50;;;3.40;99.90;;;;;;5007399;28;20405;-53
2021/01/09 10:06:51;;;;;;;36.20;17.67;;;3.60;99.90;;;;;;5006862;28;20464;-53
2021/01/09 10:09:19;;;;;;;32.45;16.75;;;3.70;99.90;;;;;;5008978;28;20432;-54
2021/01/09 10:11:46;;;;;;;34.08;18.10;;;3.80;99.90;;;;;;5007693;28;20393;-54
2021/01/09 10:14:12;;;;;;;32.95;17.52;;;3.90;99.90;;;;;;5008325;28;20415;-54
2021/01/09 10:16:38;;;;;;;30.38;16.10;;;4.00;99.90;;;;;;5008722;28;20377;-54
2021/01/09 10:19:04;;;;;;;32.35;16.73;;;6.20;99.90;;;;;;5006530;28;21015;-54
2021/01/09 10:21:33;;;;;;;37.47;18.42;;;3.80;99.90;;;;;;5009028;28;20500;-55
2021/01/09 10:23:59;;;;;;;31.00;15.35;;;3.70;99.90;;;;;;5006109;28;20507;-54
2021/01/09 10:26:33;;;;;;;44.90;21.40;;;3.80;99.90;;;;;;5007377;28;20396;-54
2021/01/09 10:29:00;;;;;;;44.33;20.08;;;3.70;99.90;;;;;;5007899;28;20463;-54
2021/01/09 10:31:34;;;;;;;35.57;17.87;;;3.60;99.90;;;;;;5006639;28;20732;-53
2021/01/09 10:34:00;;;;;;;31.67;14.80;;;3.50;99.90;;;;;;5009044;28;20420;-53
2021/01/09 10:36:28;;;;;;;38.60;20.42;;;3.50;99.90;;;;;;5009840;28;20448;-54
2021/01/09 10:38:55;;;;;;;36.42;20.73;;;6.00;99.90;;;;;;5009191;28;20473;-53
2021/01/09 10:41:20;;;;;;;41.27;21.17;;;4.80;99.90;;;;;;5009024;28;20427;-55
2021/01/09 10:43:46;;;;;;;44.63;23.17;;;5.60;99.90;;;;;;5007669;28;20431;-54
2021/01/09 10:46:22;;;;;;;34.78;18.48;;;5.50;99.90;;;;;;5004524;28;20487;-54
2021/01/09 10:48:48;;;;;;;38.97;19.33;;;5.30;99.90;;;;;;5007859;28;20416;-54
2021/01/09 10:51:18;;;;;;;37.10;18.70;;;5.50;99.90;;;;;;5011207;28;20455;-54
2021/01/09 10:53:44;;;;;;;29.77;16.02;;;4.90;99.90;;;;;;5010211;28;20416;-54
2021/01/09 10:56:10;;;;;;;22.13;11.63;;;4.40;99.90;;;;;;5007481;28;20419;-53
2021/01/09 10:58:37;;;;;;;20.97;11.07;;;4.50;99.90;;;;;;5006761;28;20416;-54
2021/01/09 11:01:04;;;;;;;28.15;14.88;;;3.60;99.90;;;;;;5007699;28;20874;-54
2021/01/09 11:03:30;;;;;;;24.17;11.70;;;3.40;99.90;;;;;;5006199;28;20401;-54
2021/01/09 11:05:56;;;;;;;19.70;9.40;;;5.90;99.90;;;;;;5009032;28;20524;-54
2021/01/09 11:08:22;;;;;;;15.50;8.10;;;2.90;99.90;;;;;;5009293;28;20411;-54
2021/01/09 11:10:48;;;;;;;18.67;9.57;;;2.90;99.90;;;;;;5011122;28;20381;-53
2021/01/09 11:13:14;;;;;;;18.90;9.27;;;3.10;99.90;;;;;;5005597;28;20389;-54
2021/01/09 11:15:47;;;;;;;16.33;7.93;;;3.40;99.90;;;;;;5007656;28;20744;-54
2021/01/09 11:18:13;;;;;;;16.87;8.10;;;3.70;99.90;;;;;;5005240;28;20754;-55
2021/01/09 11:20:43;;;;;;;16.52;8.38;;;3.90;99.90;;;;;;5006432;28;20736;-54
2021/01/09 11:23:09;;;;;;;14.70;8.00;;;3.80;99.90;;;;;;5007281;28;20392;-54
2021/01/09 11:25:35;;;;;;;15.50;8.07;;;3.90;99.90;;;;;;5005487;28;20401;-54
2021/01/09 11:28:01;;;;;;;15.30;7.70;;;3.90;99.90;;;;;;5010316;28;20735;-54
2021/01/09 11:30:27;;;;;;;15.38;7.57;;;4.40;99.90;;;;;;5009221;28;20405;-54
2021/01/09 11:32:52;;;;;;;16.20;8.40;;;6.10;99.90;;;;;;5009281;28;20470;-54
2021/01/09 11:35:18;;;;;;;16.23;8.13;;;6.60;99.90;;;;;;4997167;28;20640;-54
2021/01/09 11:37:44;;;;;;;15.93;8.05;;;4.40;99.90;;;;;;5004340;28;20396;-54
2021/01/09 11:40:10;;;;;;;12.43;7.20;;;5.90;99.90;;;;;;5008216;28;20392;-54
2021/01/09 11:42:35;;;;;;;15.00;7.65;;;5.20;99.90;;;;;;5006328;28;20886;-54
2021/01/09 11:45:02;;;;;;;13.23;7.13;;;5.30;99.90;;;;;;5005838;28;20454;-54
2021/01/09 11:47:27;;;;;;;17.73;8.80;;;5.40;99.90;;;;;;5008711;28;20495;-55
2021/01/09 11:49:53;;;;;;;18.20;8.60;;;5.30;99.90;;;;;;5004673;28;20484;-54
2021/01/09 11:52:19;;;;;;;16.27;8.30;;;5.10;99.90;;;;;;5010566;28;20401;-54
2021/01/09 11:54:44;;;;;;;15.70;8.20;;;4.90;99.90;;;;;;5012098;28;20451;-54
2021/01/09 11:57:10;;;;;;;17.00;8.53;;;5.00;99.90;;;;;;5008884;28;20404;-54
2021/01/09 11:59:37;;;;;;;14.43;7.82;;;6.00;99.90;;;;;;5010197;28;20735;-54
2021/01/09 12:02:02;;;;;;;14.90;8.18;;;4.40;99.90;;;;;;5010045;28;20754;-54
2021/01/09 12:04:28;;;;;;;16.60;8.53;;;4.60;99.90;;;;;;5007408;28;20413;-54
2021/01/09 12:06:57;;;;;;;15.63;8.73;;;4.90;99.90;;;;;;5008303;28;20509;-54
2021/01/09 12:09:23;;;;;;;15.82;8.40;;;5.10;99.90;;;;;;5007572;28;20440;-55
2021/01/09 12:11:53;;;;;;;16.15;8.90;;;5.30;99.90;;;;;;5004011;28;20392;-55
2021/01/09 12:14:19;;;;;;;17.63;9.65;;;5.40;99.90;;;;;;5005141;28;20421;-55
2021/01/09 12:16:45;;;;;;;18.77;8.90;;;6.20;99.90;;;;;;5009517;28;20426;-55
2021/01/09 12:19:10;;;;;;;16.37;8.37;;;5.40;99.90;;;;;;5000713;28;20415;-54
2021/01/09 12:21:36;;;;;;;17.70;9.05;;;5.20;99.90;;;;;;5005557;28;20830;-55
2021/01/09 12:24:01;;;;;;;17.80;9.73;;;4.70;99.90;;;;;;5007290;28;20401;-55
2021/01/09 12:26:27;;;;;;;18.07;9.50;;;4.20;99.90;;;;;;5007978;28;20377;-53
2021/01/09 12:28:53;;;;;;;16.73;9.35;;;4.10;99.90;;;;;;5005922;28;20479;-52
2021/01/09 12:31:18;;;;;;;20.20;10.10;;;4.40;99.90;;;;;;5005342;28;20406;-53
2021/01/09 12:33:45;;;;;;;19.67;9.50;;;3.90;99.90;;;;;;5006072;28;20542;-53
2021/01/09 12:36:15;;;;;;;21.98;10.10;;;6.40;99.90;;;;;;5007817;28;20403;-53
2021/01/09 12:38:41;;;;;;;18.88;9.65;;;4.80;99.90;;;;;;5007680;28;20736;-55
2021/01/09 12:41:07;;;;;;;16.83;8.25;;;3.70;99.90;;;;;;5006718;28;20438;-55
2021/01/09 12:43:32;;;;;;;16.30;8.77;;;3.60;99.90;;;;;;5005449;28;20433;-55